createdAt,value
2024-02-02T00:01:03.937Z,2.93
2024-02-02T00:03:32.047Z,2.99
2024-02-02T00:06:00.125Z,3.01
2024-02-02T00:08:28.106Z,3.05
2024-02-02T00:10:57.204Z,3.09
2024-02-02T00:13:26.011Z,3.12
2024-02-02T00:15:55.496Z,3.15
2024-02-02T00:18:23.636Z,3.18
2024-02-02T00:20:53.878Z,3.21
2024-02-02T00:23:21.900Z,3.23
2024-02-02T00:25:49.788Z,3.26
2024-02-02T00:28:17.946Z,3.29
2024-02-02T00:30:45.860Z,3.31
2024-02-02T00:33:15.304Z,3.34
2024-02-02T00:35:43.294Z,3.36
2024-02-02T00:38:11.208Z,3.39
2024-02-02T00:40:39.164Z,3.41
2024-02-02T00:43:07.174Z,3.45
2024-02-02T00:45:35.128Z,3.47
2024-02-02T00:48:03.962Z,3.49
2024-02-02T00:50:34.337Z,3.49
2024-02-02T00:53:02.254Z,3.50
2024-02-02T00:55:30.163Z,3.51
2024-02-02T00:57:58.139Z,3.54
2024-02-02T01:00:26.145Z,3.56
2024-02-02T01:02:54.261Z,3.57
2024-02-02T01:05:22.143Z,3.58
2024-02-02T01:07:51.468Z,3.59
2024-02-02T01:10:19.707Z,3.61
2024-02-02T01:12:48.096Z,3.62
2024-02-02T01:15:17.693Z,3.60
2024-02-02T01:17:46.929Z,3.60
2024-02-02T01:20:15.781Z,3.59
2024-02-02T01:22:43.986Z,3.58
2024-02-02T01:25:15.505Z,3.57
2024-02-02T01:27:43.759Z,3.58
2024-02-02T01:30:13.331Z,3.56
2024-02-02T01:32:41.953Z,3.55
2024-02-02T01:35:10.027Z,3.54
2024-02-02T01:37:37.910Z,3.55
2024-02-02T01:40:07.064Z,3.55
2024-02-02T01:42:36.437Z,3.52
2024-02-02T01:45:04.849Z,3.51
2024-02-02T01:47:32.862Z,3.49
2024-02-02T01:50:00.883Z,3.47
2024-02-02T01:52:29.194Z,3.45
2024-02-02T01:54:57.730Z,3.45
2024-02-02T01:57:26.004Z,3.44
2024-02-02T01:59:55.589Z,3.43
2024-02-02T02:02:23.622Z,3.42
2024-02-02T02:04:51.614Z,3.43
2024-02-02T02:07:19.568Z,3.41
2024-02-02T02:09:47.784Z,3.42
2024-02-02T02:12:15.870Z,3.42
2024-02-02T02:14:44.140Z,3.42
2024-02-02T02:17:13.529Z,3.43
2024-02-02T02:19:42.196Z,3.44
2024-02-02T02:22:11.494Z,3.46
2024-02-02T02:24:39.551Z,3.47
2024-02-02T02:27:07.806Z,3.47
2024-02-02T02:29:35.884Z,3.48
2024-02-02T02:32:03.937Z,3.48
2024-02-02T02:34:32.639Z,3.48
2024-02-02T02:37:00.763Z,3.48
2024-02-02T02:39:31.252Z,3.46
2024-02-02T02:41:59.270Z,3.47
2024-02-02T02:44:27.886Z,3.47
2024-02-02T02:46:55.919Z,3.47
2024-02-02T02:49:24.080Z,3.46
2024-02-02T02:51:52.036Z,3.47
2024-02-02T02:54:20.032Z,3.47
2024-02-02T02:56:49.378Z,3.46
2024-02-02T02:59:17.814Z,3.44
2024-02-02T03:01:45.823Z,3.44
2024-02-02T03:04:14.015Z,3.42
2024-02-02T03:06:42.082Z,3.42
2024-02-02T03:09:12.979Z,3.44
2024-02-02T03:11:41.265Z,3.44
2024-02-02T03:14:10.755Z,3.43
2024-02-02T03:16:38.648Z,3.43
2024-02-02T03:19:06.910Z,3.43
2024-02-02T03:21:35.856Z,3.43
2024-02-02T03:24:04.051Z,3.44
2024-02-02T03:26:32.150Z,3.43
2024-02-02T03:29:00.071Z,3.42
2024-02-02T03:31:29.432Z,3.41
2024-02-02T03:33:58.813Z,3.42
2024-02-02T03:36:27.038Z,3.42
2024-02-02T03:38:55.167Z,3.45
2024-02-02T03:41:23.631Z,3.45
2024-02-02T03:43:52.915Z,3.45
2024-02-02T03:46:20.952Z,3.44
2024-02-02T03:48:51.871Z,3.45
2024-02-02T03:51:19.979Z,3.46
2024-02-02T03:53:47.957Z,3.46
2024-02-02T03:56:16.010Z,3.45
2024-02-02T03:58:43.951Z,3.43
2024-02-02T04:01:11.956Z,3.43
2024-02-02T04:03:40.060Z,3.42
2024-02-02T04:06:09.761Z,3.41
2024-02-02T04:08:37.748Z,3.43
2024-02-02T04:11:06.130Z,3.42
2024-02-02T04:13:34.066Z,3.41
2024-02-02T04:16:02.004Z,3.41
2024-02-02T04:18:30.093Z,3.42
2024-02-02T04:20:58.270Z,3.40
2024-02-02T04:23:27.848Z,3.42
2024-02-02T04:25:55.882Z,3.43
2024-02-02T04:28:23.951Z,3.41
2024-02-02T04:30:52.076Z,3.42
2024-02-02T04:33:20.242Z,3.42
2024-02-02T04:35:48.411Z,3.43
2024-02-02T04:38:18.542Z,3.41
2024-02-02T04:40:48.009Z,3.42
2024-02-02T04:43:16.227Z,3.42
2024-02-02T04:45:44.685Z,3.43
2024-02-02T04:48:12.778Z,3.44
2024-02-02T04:50:41.343Z,3.43
2024-02-02T04:53:09.901Z,3.43
2024-02-02T04:55:37.868Z,3.45
2024-02-02T04:58:07.353Z,3.45
2024-02-02T05:00:36.636Z,3.46
2024-02-02T05:03:05.114Z,3.45
2024-02-02T05:05:33.908Z,3.47
2024-02-02T05:08:01.977Z,3.48
2024-02-02T05:10:29.989Z,3.49
2024-02-02T05:12:57.847Z,3.48
2024-02-02T05:15:27.198Z,3.48
2024-02-02T05:17:55.330Z,3.49
2024-02-02T05:20:23.360Z,3.49
2024-02-02T05:22:51.321Z,3.49
2024-02-02T05:25:19.234Z,3.50
2024-02-02T05:27:47.161Z,3.51
2024-02-02T05:30:15.890Z,3.52
2024-02-02T05:32:45.385Z,3.53
2024-02-02T05:35:13.456Z,3.55
2024-02-02T05:37:41.440Z,3.53
2024-02-02T05:40:10.658Z,3.56
2024-02-02T05:42:38.779Z,3.57
2024-02-02T05:45:07.989Z,3.57
2024-02-02T05:47:35.930Z,3.58
2024-02-02T05:50:05.860Z,3.58
2024-02-02T05:52:33.955Z,3.58
2024-02-02T05:55:01.879Z,3.59
2024-02-02T05:57:29.892Z,3.59
2024-02-02T05:59:57.937Z,3.58
2024-02-02T06:02:26.043Z,3.60
2024-02-02T06:04:54.007Z,3.62
2024-02-02T06:07:23.353Z,3.64
2024-02-02T06:09:51.309Z,3.64
2024-02-02T06:12:19.278Z,3.64
2024-02-02T06:14:47.269Z,3.65
2024-02-02T06:17:15.181Z,3.64
2024-02-02T06:19:43.238Z,3.65
2024-02-02T06:22:11.266Z,3.66
2024-02-02T06:24:40.639Z,3.67
2024-02-02T06:27:08.649Z,3.68
2024-02-02T06:29:36.664Z,3.71
2024-02-02T06:32:04.763Z,3.73
2024-02-02T06:34:32.806Z,3.75
2024-02-02T06:37:00.947Z,3.77
2024-02-02T06:39:28.937Z,3.78
2024-02-02T06:41:58.283Z,3.79
2024-02-02T06:44:26.322Z,3.79
2024-02-02T06:46:54.446Z,3.78
2024-02-02T06:49:22.571Z,3.77
2024-02-02T06:51:50.521Z,3.78
2024-02-02T06:54:18.600Z,3.76
2024-02-02T06:56:47.775Z,3.76
2024-02-02T06:59:17.309Z,3.72
2024-02-02T07:01:45.518Z,3.70
2024-02-02T07:04:15.708Z,3.69
2024-02-02T07:06:44.827Z,3.69
2024-02-02T07:09:27.854Z,3.70
2024-02-02T07:11:58.248Z,3.69
2024-02-02T07:15:00.889Z,3.69
2024-02-02T07:17:41.108Z,3.67
2024-02-02T07:20:12.318Z,3.66
2024-02-02T07:22:41.331Z,3.64
2024-02-02T07:25:10.849Z,3.65
2024-02-02T07:27:55.811Z,3.63
2024-02-02T07:30:52.601Z,3.64
2024-02-02T07:33:24.911Z,3.64
2024-02-02T07:35:53.724Z,3.64
2024-02-02T07:38:43.547Z,3.66
2024-02-02T07:41:14.246Z,3.65
2024-02-02T07:43:42.504Z,3.68
2024-02-02T07:46:14.498Z,3.70
2024-02-02T07:48:44.676Z,3.72
2024-02-02T07:51:13.372Z,3.74
2024-02-02T07:53:41.522Z,3.78
2024-02-02T07:56:10.494Z,3.80
2024-02-02T07:58:38.709Z,3.82
2024-02-02T08:01:08.143Z,3.86
2024-02-02T08:03:38.053Z,3.91
2024-02-02T08:06:07.113Z,3.92
2024-02-02T08:08:37.173Z,3.96
2024-02-02T08:11:05.618Z,3.99
2024-02-02T08:13:34.075Z,4.01
2024-02-02T08:16:02.141Z,4.02
2024-02-02T08:18:30.984Z,4.02
2024-02-02T08:21:02.040Z,4.03
2024-02-02T08:23:30.125Z,4.03
2024-02-02T08:25:58.100Z,4.04
2024-02-02T08:28:26.098Z,4.07
2024-02-02T08:30:57.289Z,4.10
2024-02-02T08:33:25.394Z,4.12
2024-02-02T08:35:53.578Z,4.15
2024-02-02T08:38:22.858Z,4.18
2024-02-02T08:40:50.992Z,4.22
2024-02-02T08:43:22.048Z,4.26
2024-02-02T08:46:10.281Z,4.30
2024-02-02T08:48:40.548Z,4.32
2024-02-02T08:51:54.574Z,4.36
2024-02-02T08:54:36.358Z,4.39
2024-02-02T08:57:37.153Z,4.41
2024-02-02T09:00:27.296Z,4.42
2024-02-02T09:03:10.550Z,4.43
2024-02-02T09:05:56.232Z,4.45
2024-02-02T09:08:35.201Z,4.48
2024-02-02T09:11:21.440Z,4.50
2024-02-02T09:13:49.993Z,4.56
2024-02-02T09:16:20.108Z,4.55
2024-02-02T09:18:56.189Z,4.58
2024-02-02T09:21:29.222Z,4.61
2024-02-02T09:23:57.555Z,4.64
2024-02-02T09:26:39.707Z,4.69
2024-02-02T09:29:10.691Z,4.74
2024-02-02T09:31:39.460Z,4.78
2024-02-02T09:34:10.461Z,4.82
2024-02-02T09:36:40.986Z,4.86
2024-02-02T09:39:30.901Z,4.90
2024-02-02T09:42:30.942Z,4.92
2024-02-02T09:45:01.246Z,4.94
2024-02-02T09:47:53.368Z,4.96
2024-02-02T09:50:38.078Z,4.99
2024-02-02T09:53:25.807Z,5.01
2024-02-02T09:56:00.777Z,5.05
2024-02-02T09:58:38.435Z,5.06
2024-02-02T10:01:16.563Z,5.07
2024-02-02T10:03:55.876Z,5.10
2024-02-02T10:06:35.125Z,5.13
2024-02-02T10:09:13.234Z,5.16
2024-02-02T10:12:04.422Z,5.20
2024-02-02T10:15:04.361Z,5.24
2024-02-02T10:17:45.837Z,5.27
2024-02-02T10:20:23.110Z,5.32
2024-02-02T10:23:27.558Z,5.37
2024-02-02T10:26:34.961Z,5.45
2024-02-02T10:29:14.495Z,5.50
2024-02-02T10:32:09.911Z,5.57
2024-02-02T10:34:54.378Z,5.63
2024-02-02T10:37:34.883Z,5.67
2024-02-02T10:40:29.142Z,5.68
2024-02-02T10:43:17.034Z,5.71
2024-02-02T10:45:57.766Z,5.75
2024-02-02T10:48:55.727Z,5.82
2024-02-02T10:51:32.620Z,5.90
2024-02-02T10:54:12.368Z,6.01
2024-02-02T10:56:55.035Z,6.12
2024-02-02T10:59:34.341Z,6.24
2024-02-02T11:02:14.715Z,6.32
2024-02-02T11:04:58.022Z,6.40
2024-02-02T11:07:29.595Z,6.48
2024-02-02T11:09:59.789Z,6.52
2024-02-02T11:12:40.428Z,6.56
2024-02-02T11:15:27.700Z,6.57
2024-02-02T11:18:07.308Z,6.63
2024-02-02T11:20:49.080Z,6.65
2024-02-02T11:23:23.898Z,6.70
2024-02-02T11:25:57.467Z,6.67
2024-02-02T11:28:30.973Z,6.67
2024-02-02T11:31:09.187Z,6.68
2024-02-02T11:33:54.946Z,6.68
2024-02-02T11:36:38.906Z,6.73
2024-02-02T11:39:24.980Z,6.76
2024-02-02T11:41:54.084Z,6.79
2024-02-02T11:44:22.673Z,6.80
2024-02-02T11:46:53.124Z,6.83
2024-02-02T11:49:25.470Z,6.85
2024-02-02T11:52:02.869Z,6.86
2024-02-02T11:54:37.718Z,6.90
2024-02-02T11:57:08.539Z,6.93
2024-02-02T11:59:40.976Z,6.98
2024-02-02T12:02:22.756Z,7.00
2024-02-02T12:04:58.684Z,7.03
2024-02-02T12:07:36.701Z,7.03
2024-02-02T12:10:06.651Z,7.06
2024-02-02T12:12:37.941Z,7.09
2024-02-02T12:15:10.926Z,7.11
2024-02-02T12:17:39.773Z,7.12
2024-02-02T12:20:09.442Z,7.12
2024-02-02T12:22:40.926Z,7.13
2024-02-02T12:25:11.677Z,7.15
2024-02-02T12:27:39.923Z,7.16
2024-02-02T12:30:10.402Z,7.21
2024-02-02T12:32:39.687Z,7.24
2024-02-02T12:35:08.060Z,7.30
2024-02-02T12:37:48.903Z,7.37
2024-02-02T12:40:20.596Z,7.45
2024-02-02T12:42:49.293Z,7.54
2024-02-02T12:45:17.833Z,7.64
2024-02-02T12:47:46.216Z,7.72
2024-02-02T12:50:16.555Z,7.79
2024-02-02T12:52:45.398Z,7.86
2024-02-02T12:55:15.227Z,7.95
2024-02-02T12:57:43.573Z,8.00
2024-02-02T13:00:15.659Z,8.09
2024-02-02T13:02:45.058Z,8.17
2024-02-02T13:05:13.961Z,8.22
2024-02-02T13:07:43.059Z,8.27
2024-02-02T13:10:12.980Z,8.30
2024-02-02T13:12:48.104Z,8.33
2024-02-02T13:15:19.344Z,8.35
2024-02-02T13:18:01.839Z,8.38
2024-02-02T13:20:33.331Z,8.40
2024-02-02T13:23:11.211Z,8.39
2024-02-02T13:25:41.924Z,8.37
2024-02-02T13:28:17.856Z,8.40
2024-02-02T13:30:54.535Z,8.46
2024-02-02T13:33:24.168Z,8.49
2024-02-02T13:56:52.384Z,8.62
2024-02-02T13:59:20.417Z,8.64
2024-02-02T14:01:48.677Z,8.65
2024-02-02T14:04:25.648Z,8.66
2024-02-02T14:06:53.736Z,8.66
2024-02-02T14:09:23.288Z,8.62
2024-02-02T14:12:00.795Z,8.62
2024-02-02T14:14:29.412Z,8.58
2024-02-02T14:17:04.323Z,8.54
2024-02-02T14:19:32.742Z,8.50
2024-02-02T14:22:07.380Z,8.47
2024-02-02T14:24:36.104Z,8.46
2024-02-02T14:27:08.093Z,8.41
2024-02-02T14:29:43.961Z,8.40
2024-02-02T14:32:12.508Z,8.38
2024-02-02T14:34:40.587Z,8.35
2024-02-02T14:37:11.023Z,8.34
2024-02-02T14:39:39.009Z,8.33
2024-02-02T14:42:08.733Z,8.32
2024-02-02T14:44:37.451Z,8.30
2024-02-02T14:47:07.198Z,8.31
2024-02-02T14:49:35.647Z,8.26
2024-02-02T14:52:03.745Z,8.26
2024-02-02T14:54:32.089Z,8.23
2024-02-02T14:57:00.810Z,8.22
2024-02-02T14:59:33.078Z,8.20
2024-02-02T15:02:01.030Z,8.20
2024-02-02T15:04:28.955Z,8.18
2024-02-02T15:06:57.210Z,8.16
2024-02-02T15:09:27.068Z,8.13
2024-02-02T15:12:01.306Z,8.09
2024-02-02T15:14:35.669Z,8.07
2024-02-02T15:17:04.682Z,8.07
2024-02-02T15:19:32.797Z,8.03
2024-02-02T15:22:01.127Z,8.00
2024-02-02T15:24:29.086Z,7.96
2024-02-02T15:26:57.050Z,7.95
2024-02-02T15:29:25.179Z,7.92
2024-02-02T15:31:54.429Z,7.89
2024-02-02T15:34:24.608Z,7.87
2024-02-02T15:36:52.733Z,7.87
2024-02-02T15:39:27.579Z,7.83
2024-02-02T15:42:02.731Z,7.78
2024-02-02T15:44:30.613Z,7.75
2024-02-02T15:47:00.846Z,7.72
2024-02-02T15:49:28.944Z,7.70
2024-02-02T15:51:57.061Z,7.67
2024-02-02T15:54:25.034Z,7.61
2024-02-02T15:56:52.955Z,7.57
2024-02-02T15:59:20.882Z,7.53
2024-02-02T16:01:48.993Z,7.51
2024-02-02T16:04:18.359Z,7.44
2024-02-02T16:06:46.437Z,7.45
2024-02-02T16:09:14.640Z,7.43
2024-02-02T16:11:42.671Z,7.41
2024-02-02T16:14:10.595Z,7.37
2024-02-02T16:16:38.881Z,7.30
2024-02-02T16:19:06.867Z,7.25
2024-02-02T16:21:36.414Z,7.25
2024-02-02T16:24:04.832Z,7.24
2024-02-02T16:26:32.842Z,7.22
2024-02-02T16:29:00.724Z,7.22
2024-02-02T16:31:28.691Z,7.18
2024-02-02T16:33:56.822Z,7.16
2024-02-02T16:36:24.898Z,7.16
2024-02-02T16:38:54.181Z,7.14
2024-02-02T16:41:22.038Z,7.13
2024-02-02T16:43:49.965Z,7.12
2024-02-02T16:46:17.853Z,7.09
2024-02-02T16:48:46.770Z,7.07
2024-02-02T16:51:18.135Z,7.05
2024-02-02T16:53:46.506Z,7.02
2024-02-02T16:56:19.213Z,7.00
2024-02-02T16:58:47.371Z,6.95
2024-02-02T17:01:15.286Z,6.90
2024-02-02T17:03:44.066Z,6.88
2024-02-02T17:06:12.490Z,6.87
2024-02-02T17:08:40.543Z,6.84
2024-02-02T17:11:09.178Z,6.79
2024-02-02T17:13:38.497Z,6.79
2024-02-02T17:16:07.324Z,6.76
2024-02-02T17:18:35.482Z,6.77
2024-02-02T17:21:03.991Z,6.77
2024-02-02T17:23:32.177Z,6.77
2024-02-02T17:26:00.039Z,6.72
2024-02-02T17:28:27.934Z,6.68
2024-02-02T17:30:57.477Z,6.62
2024-02-02T17:33:25.481Z,6.59
2024-02-02T17:35:53.475Z,6.55
2024-02-02T17:38:21.885Z,6.50
2024-02-02T17:40:50.545Z,6.45
2024-02-02T17:43:18.639Z,6.40
2024-02-02T17:45:46.613Z,6.38
2024-02-02T17:48:16.159Z,6.40
2024-02-02T17:50:45.006Z,6.46
2024-02-02T17:53:12.952Z,6.52
2024-02-02T17:55:40.867Z,6.58
2024-02-02T17:58:09.725Z,6.62
2024-02-02T18:00:37.615Z,6.80
2024-02-02T18:03:05.575Z,6.94
2024-02-02T18:05:34.863Z,7.06
2024-02-02T18:08:02.937Z,7.16
2024-02-02T18:10:30.960Z,7.25
2024-02-02T18:13:00.155Z,7.37
2024-02-02T18:15:28.161Z,7.43
2024-02-02T18:17:56.333Z,7.49
2024-02-02T18:20:24.250Z,7.54
2024-02-02T18:22:54.050Z,7.57
2024-02-02T18:25:24.025Z,7.62
2024-02-02T18:27:53.355Z,7.70
2024-02-02T18:30:26.796Z,7.72
2024-02-02T18:32:54.859Z,7.77
2024-02-02T18:35:23.181Z,7.80
2024-02-02T18:37:54.128Z,7.81
2024-02-02T18:40:26.346Z,7.81
2024-02-02T18:42:54.477Z,7.83
2024-02-02T18:45:22.481Z,7.81
2024-02-02T18:47:50.749Z,7.81
2024-02-02T18:50:19.355Z,7.84
2024-02-02T18:52:48.670Z,7.85
2024-02-02T18:55:16.884Z,7.86
2024-02-02T18:57:46.194Z,7.90
2024-02-02T19:00:15.708Z,7.93
2024-02-02T19:02:43.820Z,7.92
2024-02-02T19:05:12.258Z,7.91
2024-02-02T19:07:40.296Z,7.91
2024-02-02T19:10:08.598Z,7.91
2024-02-02T19:12:36.558Z,7.92
2024-02-02T19:15:07.735Z,7.94
2024-02-02T19:17:35.932Z,7.94
2024-02-02T19:20:04.002Z,7.95
2024-02-02T19:22:31.897Z,7.95
2024-02-02T19:25:00.357Z,7.95
2024-02-02T19:27:28.299Z,7.95
2024-02-02T19:29:56.200Z,7.96
2024-02-02T19:32:27.818Z,7.97
2024-02-02T19:34:55.750Z,7.98
2024-02-02T19:37:24.007Z,7.99
2024-02-02T19:39:52.050Z,8.01
2024-02-02T19:42:19.989Z,8.02
2024-02-02T19:44:47.900Z,8.03
2024-02-02T19:47:15.780Z,8.04
2024-02-02T19:49:45.118Z,8.03
2024-02-02T19:52:13.070Z,8.05
2024-02-02T19:54:42.865Z,8.05
2024-02-02T19:57:10.841Z,8.06
2024-02-02T19:59:38.718Z,8.08
2024-02-02T20:02:07.889Z,8.08
2024-02-02T20:04:35.862Z,8.08
2024-02-02T20:07:05.353Z,8.08
2024-02-02T20:09:33.267Z,8.08
2024-02-02T20:12:02.000Z,8.09
2024-02-02T20:14:30.196Z,8.08
2024-02-02T20:16:58.096Z,8.07
2024-02-02T20:19:26.343Z,8.06
2024-02-02T20:21:54.407Z,8.07
2024-02-02T20:24:23.854Z,8.07
2024-02-02T20:26:51.828Z,8.06
2024-02-02T20:29:19.781Z,8.06
2024-02-02T20:31:51.427Z,8.05
2024-02-02T20:34:19.673Z,8.04
2024-02-02T20:36:47.808Z,8.05
2024-02-02T20:39:15.773Z,8.04
2024-02-02T20:41:45.205Z,8.04
2024-02-02T20:44:13.193Z,8.02
2024-02-02T20:46:41.095Z,8.01
2024-02-02T20:49:09.123Z,8.00
2024-02-02T20:51:41.793Z,7.99
2024-02-02T20:54:09.572Z,7.97
2024-02-02T20:56:42.747Z,7.97
2024-02-02T20:59:12.027Z,7.96
2024-02-02T21:01:40.072Z,7.96
2024-02-02T21:04:08.226Z,7.97
2024-02-02T21:06:42.948Z,7.95
2024-02-02T21:09:11.316Z,7.94
2024-02-02T21:11:39.265Z,7.92
2024-02-02T21:14:07.178Z,7.93
2024-02-02T21:16:36.507Z,7.91
2024-02-02T21:19:05.846Z,7.91
2024-02-02T21:21:33.958Z,7.93
2024-02-02T21:24:01.900Z,7.95
2024-02-02T21:26:30.592Z,7.94
2024-02-02T21:28:58.695Z,7.93
2024-02-02T21:31:26.666Z,7.92
2024-02-02T21:33:56.620Z,7.91
2024-02-02T21:36:24.647Z,7.93
2024-02-02T21:38:52.530Z,7.93
2024-02-02T21:41:25.540Z,7.92
2024-02-02T21:43:54.217Z,7.92
2024-02-02T21:46:22.956Z,7.89
2024-02-02T21:48:51.190Z,7.88
2024-02-02T21:51:20.575Z,7.89
2024-02-02T21:53:48.478Z,7.90
2024-02-02T21:56:16.488Z,7.92
2024-02-02T21:58:44.356Z,7.92
2024-02-02T22:01:12.428Z,7.95
2024-02-02T22:03:40.415Z,7.92
2024-02-02T22:06:09.246Z,7.92
2024-02-02T22:08:38.582Z,7.93
2024-02-02T22:11:06.677Z,7.95
2024-02-02T22:13:36.835Z,7.96
2024-02-02T22:16:11.005Z,7.97
2024-02-02T22:18:39.082Z,7.97
2024-02-02T22:21:07.251Z,7.97
2024-02-02T22:23:36.068Z,8.00
2024-02-02T22:26:05.888Z,8.03
2024-02-02T22:28:33.922Z,8.04
2024-02-02T22:31:05.969Z,8.06
2024-02-02T22:33:34.349Z,8.09
2024-02-02T22:36:02.383Z,8.10
2024-02-02T22:38:30.488Z,8.12
2024-02-02T22:40:59.124Z,8.12
2024-02-02T22:43:29.612Z,8.14
2024-02-02T22:45:57.544Z,8.14
2024-02-02T22:48:25.619Z,8.14
2024-02-02T22:50:56.010Z,8.12
2024-02-02T22:53:23.972Z,8.13
2024-02-02T22:55:51.953Z,8.13
2024-02-02T22:58:19.852Z,8.15
2024-02-02T23:00:49.583Z,8.17
2024-02-02T23:06:36.267Z,8.18
2024-02-02T23:09:04.431Z,8.18
2024-02-02T23:11:32.491Z,8.19
2024-02-02T23:14:00.379Z,8.20
2024-02-02T23:16:28.372Z,8.22
2024-02-02T23:18:56.748Z,8.22
2024-02-02T23:21:24.791Z,8.23
2024-02-02T23:23:54.103Z,8.25
2024-02-02T23:26:22.021Z,8.27
2024-02-02T23:28:49.907Z,8.26
2024-02-02T23:31:18.107Z,8.25
2024-02-02T23:33:46.061Z,8.27
2024-02-02T23:36:14.197Z,8.29
2024-02-02T23:38:44.512Z,8.29
2024-02-02T23:41:16.772Z,8.28
2024-02-02T23:43:44.820Z,8.26
2024-02-02T23:46:12.769Z,8.24
2024-02-02T23:48:40.787Z,8.22
2024-02-02T23:51:08.823Z,8.21
2024-02-02T23:53:36.776Z,8.19
2024-02-02T23:56:05.042Z,8.19
2024-02-02T23:58:34.326Z,8.19
